Aérodrome :
LOGIN :

S'inscrire | Disclaimer

   EN    FR    IT 

 










Légende :    VFR   VFR Marginal   IFR   IFR Intensif   IFR Très Intensif
Visi : 
Plafond : 
>= 8 km
>= 3000ft
5 à 8 km
1000 à 3000 ft
1500m à 5 km
500 à 1000 ft
800 à 1500m
200 à 500 ft
< 800m
< 200 ft
Symboles :   Orages  Brouillard  Fortes neiges  Fortes précipitations  Vent > 20 kt
SIGMETs :   Divers  Orages  Givrage  Turbulence  Onde Orograph.  Cendres Volcan.






- Altitude de l'aérodrome : 1017 ft


LFSL - Brive Souillac

DERNIER METAR :
  • 151800Z AUTO 32008KT CAVOK 19/11 Q1020 NOSIG

METARs EXPIRÉS :
  • 151730Z AUTO 32007KT 9999 FEW045 OVC052 19/11 Q1020 NOSIG
  • 151700Z AUTO 31007KT 9999 SCT043 OVC049 19/11 Q1020 NOSIG
  • 151630Z AUTO 31008KT 9999 OVC046 19/11 Q1020 NOSIG
  • 151600Z AUTO 31009KT CAVOK 20/11 Q1020 NOSIG
  • 151530Z AUTO 31010KT 290V350 9999 OVC049 19/11 Q1020 NOSIG

TAF TAF LFSL
Valide du 15 à 15h jusqu'au 16 à 00h UTC


151400Z 1515/1524 30007KT CAVOK



MET'MAP, la Météo Aéronautique d'un coup d'oeil ! - Copyright ORBIFLY Décembre 2007 - Disclaimer

ORBIFLY MET'MAP TEAM :

Programmation & Développement : Alexandra Zaïnal
Sur une idée originale de : Baudouin d'Aumeries
Assistance à la programmation : Marc-Olivier Méhu
Soutien technique & logistique : Manuel Goepfert

Contact : metmap@orbifly.com




SOURCES & CREDITS :

   NOAA